createdAt,value
2023-04-18T00:00:27.845Z,59.96
2023-04-18T00:02:56.274Z,60.04
2023-04-18T00:05:24.608Z,59.96
2023-04-18T00:07:53.440Z,59.96
2023-04-18T00:10:21.700Z,60.04
2023-04-18T00:12:49.747Z,60.06
2023-04-18T00:15:18.613Z,59.99
2023-04-18T00:17:48.289Z,60.03
2023-04-18T00:20:16.377Z,60.13
2023-04-18T00:22:46.718Z,60.04
2023-04-18T00:25:14.902Z,60.20
2023-04-18T00:27:43.469Z,60.02
2023-04-18T00:30:11.965Z,60.40
2023-04-18T00:32:40.303Z,60.55
2023-04-18T00:35:08.759Z,60.64
2023-04-18T00:37:37.498Z,60.42
2023-04-18T00:40:06.465Z,60.55
2023-04-18T00:42:35.095Z,60.48
2023-04-18T00:45:03.138Z,60.63
2023-04-18T00:47:31.337Z,60.82
2023-04-18T00:49:59.663Z,61.13
2023-04-18T00:52:27.933Z,61.00
2023-04-18T00:54:56.193Z,60.90
2023-04-18T00:57:24.576Z,60.82
2023-04-18T00:59:52.632Z,60.75
2023-04-18T01:02:20.798Z,60.95
2023-04-18T01:04:49.220Z,60.75
2023-04-18T01:07:17.709Z,60.84
2023-04-18T01:09:45.799Z,60.99
2023-04-18T01:12:14.198Z,61.07
2023-04-18T01:14:43.126Z,61.12
2023-04-18T01:17:13.521Z,61.18
2023-04-18T01:19:41.675Z,61.39
2023-04-18T01:23:04.014Z,61.33
2023-04-18T01:25:32.808Z,61.24
2023-04-18T01:28:01.081Z,61.38
2023-04-18T01:30:29.484Z,61.38
2023-04-18T01:33:03.626Z,61.33
2023-04-18T01:35:32.436Z,61.51
2023-04-18T01:38:00.752Z,61.55
2023-04-18T01:40:30.149Z,61.71
2023-04-18T01:42:58.110Z,61.52
2023-04-18T01:45:26.130Z,61.65
2023-04-18T01:47:54.190Z,61.73
2023-04-18T01:50:22.370Z,61.76
2023-04-18T01:52:50.495Z,61.75
2023-04-18T01:55:18.569Z,61.89
2023-04-18T01:57:46.586Z,61.92
2023-04-18T02:00:14.795Z,61.95
2023-04-18T02:02:43.281Z,62.12
2023-04-18T02:05:11.541Z,62.11
2023-04-18T02:07:41.247Z,62.04
2023-04-18T02:10:11.041Z,62.16
2023-04-18T02:12:39.046Z,62.14
2023-04-18T02:15:07.694Z,62.21
2023-04-18T02:17:37.991Z,62.21
2023-04-18T02:20:09.299Z,62.22
2023-04-18T02:22:40.663Z,62.20
2023-04-18T02:25:12.875Z,62.38
2023-04-18T02:27:43.323Z,62.50
2023-04-18T02:30:16.495Z,62.35
2023-04-18T02:32:59.007Z,62.42
2023-04-18T02:35:43.541Z,62.47
2023-04-18T02:38:21.793Z,62.59
2023-04-18T02:41:01.152Z,62.51
2023-04-18T02:43:37.402Z,62.72
2023-04-18T02:46:13.149Z,62.71
2023-04-18T02:48:45.572Z,62.75
2023-04-18T02:51:17.072Z,62.80
2023-04-18T02:53:49.428Z,62.80
2023-04-18T02:56:28.220Z,62.88
2023-04-18T02:59:15.100Z,62.98
2023-04-18T03:02:03.996Z,63.03
2023-04-18T03:04:33.187Z,63.18
2023-04-18T03:07:03.486Z,63.18
2023-04-18T03:09:35.092Z,63.29
2023-04-18T03:12:07.177Z,63.34
2023-04-18T03:14:36.347Z,63.34
2023-04-18T03:17:04.863Z,63.38
2023-04-18T03:19:37.910Z,63.46
2023-04-18T03:22:09.308Z,63.64
2023-04-18T03:24:40.914Z,63.43
2023-04-18T03:27:09.347Z,63.67
2023-04-18T03:29:38.629Z,63.64
2023-04-18T03:32:07.242Z,63.75
2023-04-18T03:34:36.113Z,63.72
2023-04-18T03:37:05.459Z,63.77
2023-04-18T03:39:37.599Z,63.73
2023-04-18T03:42:06.084Z,63.77
2023-04-18T03:44:35.254Z,63.58
2023-04-18T03:47:04.412Z,63.59
2023-04-18T03:49:33.098Z,63.70
2023-04-18T03:52:01.678Z,63.72
2023-04-18T03:54:30.002Z,63.57
2023-04-18T03:56:59.506Z,63.60
2023-04-18T03:59:27.854Z,63.62
2023-04-18T04:01:56.202Z,63.55
2023-04-18T04:04:24.614Z,63.62
2023-04-18T04:06:52.946Z,63.50
2023-04-18T04:09:21.535Z,63.54
2023-04-18T04:11:51.149Z,63.56
2023-04-18T04:14:20.091Z,63.68
2023-04-18T04:16:48.139Z,63.65
2023-04-18T04:19:17.806Z,63.69
2023-04-18T04:21:54.863Z,63.72
2023-04-18T04:24:23.086Z,63.76
2023-04-18T04:26:53.032Z,63.73
2023-04-18T04:29:23.972Z,63.73
2023-04-18T04:31:52.877Z,63.61
2023-04-18T04:34:28.658Z,63.65
2023-04-18T04:36:56.877Z,63.58
2023-04-18T04:39:25.889Z,63.74
2023-04-18T04:42:13.446Z,63.43
2023-04-18T04:44:50.537Z,63.42
2023-04-18T04:47:19.511Z,63.39
2023-04-18T04:49:47.845Z,63.42
2023-04-18T04:52:16.148Z,63.18
2023-04-18T04:54:45.934Z,63.20
2023-04-18T04:57:15.638Z,63.08
2023-04-18T04:59:43.878Z,63.06
2023-04-18T05:02:12.414Z,62.88
2023-04-18T05:04:40.600Z,62.50
2023-04-18T05:07:08.613Z,62.60
2023-04-18T05:09:36.778Z,62.23
2023-04-18T05:12:05.266Z,61.86
2023-04-18T05:14:33.267Z,61.45
2023-04-18T05:17:01.320Z,61.37
2023-04-18T05:19:29.626Z,61.11
2023-04-18T05:21:57.540Z,60.55
2023-04-18T05:24:25.590Z,60.19
2023-04-18T05:26:53.893Z,59.85
2023-04-18T05:29:21.905Z,59.10
2023-04-18T05:31:50.391Z,58.90
2023-04-18T05:34:18.449Z,58.93
2023-04-18T05:36:48.055Z,58.56
2023-04-18T05:39:17.064Z,58.57
2023-04-18T05:41:45.175Z,58.27
2023-04-18T05:44:13.320Z,58.24
2023-04-18T05:46:41.618Z,58.01
2023-04-18T05:49:10.052Z,57.79
2023-04-18T05:51:38.184Z,57.54
2023-04-18T05:54:06.274Z,57.44
2023-04-18T05:56:34.444Z,57.62
2023-04-18T05:59:02.497Z,57.40
2023-04-18T06:01:30.518Z,57.52
2023-04-18T06:03:58.698Z,57.53
2023-04-18T06:06:27.751Z,57.09
2023-04-18T06:08:56.023Z,56.59
2023-04-18T06:11:24.025Z,56.35
2023-04-18T06:13:52.057Z,56.35
2023-04-18T06:16:20.435Z,56.04
2023-04-18T06:18:48.472Z,55.54
2023-04-18T06:21:16.698Z,55.29
2023-04-18T06:23:44.739Z,54.68
2023-04-18T06:26:12.841Z,54.04
2023-04-18T06:28:41.089Z,53.70
2023-04-18T06:31:09.377Z,53.55
2023-04-18T06:33:37.929Z,53.35
2023-04-18T06:36:07.350Z,52.99
2023-04-18T06:38:35.810Z,52.75
2023-04-18T06:41:03.921Z,52.67
2023-04-18T06:43:32.135Z,52.40
2023-04-18T06:46:01.311Z,52.10
2023-04-18T06:48:29.875Z,51.33
2023-04-18T06:50:57.937Z,50.65
2023-04-18T06:53:26.087Z,50.26
2023-04-18T06:55:54.155Z,50.08
2023-04-18T06:58:22.422Z,49.76
2023-04-18T07:00:52.114Z,49.51
2023-04-18T07:03:20.538Z,49.50
2023-04-18T07:05:50.451Z,49.44
2023-04-18T07:08:18.813Z,49.36
2023-04-18T07:10:47.164Z,49.26
2023-04-18T07:13:16.036Z,49.12
2023-04-18T07:15:44.169Z,49.04
2023-04-18T07:18:16.068Z,49.00
2023-04-18T07:20:46.320Z,48.86
2023-04-18T07:23:14.318Z,48.50
2023-04-18T07:25:42.503Z,48.24
2023-04-18T07:28:10.689Z,47.92
2023-04-18T07:30:38.770Z,48.41
2023-04-18T07:33:07.536Z,48.46
2023-04-18T07:35:36.171Z,48.65
2023-04-18T07:38:04.211Z,48.59
2023-04-18T07:40:32.309Z,48.65
2023-04-18T07:43:00.550Z,48.44
2023-04-18T07:45:28.676Z,48.11
2023-04-18T07:47:57.104Z,48.13
2023-04-18T07:50:25.210Z,48.21
2023-04-18T07:52:53.230Z,48.27
2023-04-18T07:55:21.731Z,48.09
2023-04-18T07:57:50.583Z,48.09
2023-04-18T08:00:18.761Z,48.02
2023-04-18T08:02:46.931Z,48.05
2023-04-18T08:05:15.516Z,47.72
2023-04-18T08:07:43.745Z,47.53
2023-04-18T08:10:12.122Z,47.35
2023-04-18T08:12:40.738Z,47.51
2023-04-18T08:15:09.176Z,47.20
2023-04-18T08:17:39.147Z,46.98
2023-04-18T08:20:07.820Z,47.10
2023-04-18T08:22:43.551Z,46.88
2023-04-18T08:25:18.522Z,46.94
2023-04-18T08:27:46.554Z,46.84
2023-04-18T08:30:14.785Z,46.89
2023-04-18T08:32:42.879Z,46.83
2023-04-18T08:35:10.897Z,46.65
2023-04-18T08:37:39.170Z,47.01
2023-04-18T08:40:07.729Z,47.20
2023-04-18T08:42:36.560Z,47.34
2023-04-18T08:45:06.244Z,47.38
2023-04-18T08:47:35.443Z,47.55
2023-04-18T08:50:04.036Z,47.50
2023-04-18T08:52:32.654Z,47.61
2023-04-18T08:55:02.938Z,47.75
2023-04-18T08:57:31.547Z,47.92
2023-04-18T09:00:02.362Z,47.88
2023-04-18T09:02:42.783Z,47.66
2023-04-18T09:05:16.481Z,47.53
2023-04-18T09:07:44.935Z,47.00
2023-04-18T09:10:13.944Z,47.24
2023-04-18T09:12:52.433Z,47.28
2023-04-18T09:15:23.806Z,46.57
2023-04-18T09:17:54.561Z,46.14
2023-04-18T09:20:38.197Z,45.70
2023-04-18T09:23:11.232Z,45.10
2023-04-18T09:25:45.417Z,44.55
2023-04-18T09:28:30.092Z,44.15
2023-04-18T09:30:59.737Z,44.22
2023-04-18T09:33:32.607Z,44.08
2023-04-18T09:36:18.273Z,44.06
2023-04-18T09:38:46.856Z,44.01
2023-04-18T09:41:20.067Z,44.29
2023-04-18T09:43:49.367Z,44.32
2023-04-18T09:46:22.673Z,44.33
2023-04-18T09:48:51.103Z,44.56
2023-04-18T09:51:19.094Z,44.26
2023-04-18T09:53:50.346Z,43.70
2023-04-18T09:56:28.378Z,43.47
2023-04-18T09:58:57.389Z,42.89
2023-04-18T10:01:28.599Z,42.44
2023-04-18T10:03:56.848Z,42.07
2023-04-18T10:06:24.997Z,41.95
2023-04-18T10:08:52.959Z,41.29
2023-04-18T10:11:22.041Z,41.07
2023-04-18T10:13:50.159Z,40.49
2023-04-18T10:16:18.382Z,39.94
2023-04-18T10:18:46.407Z,39.92
2023-04-18T10:21:15.374Z,40.19
2023-04-18T10:23:43.336Z,39.97
2023-04-18T10:26:11.417Z,39.71
2023-04-18T10:28:54.323Z,39.23
2023-04-18T10:31:23.844Z,38.81
2023-04-18T10:36:30.275Z,39.03
2023-04-18T10:39:04.326Z,39.39
2023-04-18T10:41:33.894Z,39.51
2023-04-18T10:44:22.025Z,39.74
2023-04-18T10:46:52.950Z,40.22
2023-04-18T10:49:32.957Z,39.90
2023-04-18T10:52:02.119Z,39.74
2023-04-18T10:54:43.915Z,40.39
2023-04-18T10:57:13.373Z,40.69
2023-04-18T10:59:42.378Z,40.66
2023-04-18T11:02:26.438Z,40.75
2023-04-18T11:04:58.446Z,41.18
2023-04-18T11:07:36.291Z,41.24
2023-04-18T11:10:08.391Z,40.48
2023-04-18T11:12:39.900Z,40.04
2023-04-18T11:15:12.661Z,40.03
2023-04-18T11:17:41.254Z,39.99
2023-04-18T11:20:14.325Z,41.27
2023-04-18T11:22:49.456Z,41.95
2023-04-18T11:25:18.727Z,42.62
2023-04-18T11:27:47.915Z,43.68
2023-04-18T11:30:16.367Z,44.38
2023-04-18T11:32:44.716Z,45.00
2023-04-18T11:35:14.065Z,45.42
2023-04-18T11:37:43.086Z,45.78
2023-04-18T11:40:11.861Z,46.18
2023-04-18T11:42:40.657Z,46.17
2023-04-18T11:45:12.776Z,46.08
2023-04-18T11:47:43.070Z,46.66
2023-04-18T11:50:12.249Z,48.70
2023-04-18T11:52:41.425Z,49.42
2023-04-18T11:55:23.993Z,50.34
2023-04-18T11:57:58.228Z,51.14
2023-04-18T12:00:32.939Z,51.15
2023-04-18T12:03:02.221Z,51.41
2023-04-18T12:05:32.132Z,51.65
2023-04-18T12:08:10.011Z,52.31
2023-04-18T12:10:38.437Z,53.35
2023-04-18T12:13:08.392Z,54.17
2023-04-18T12:15:38.834Z,54.79
2023-04-18T12:18:09.768Z,55.44
2023-04-18T12:20:39.673Z,56.38
2023-04-18T12:23:08.119Z,57.08
2023-04-18T12:25:36.891Z,57.57
2023-04-18T12:28:15.193Z,58.26
2023-04-18T12:30:43.381Z,59.65
2023-04-18T12:33:13.957Z,60.50
2023-04-18T12:35:42.651Z,61.27
2023-04-18T12:38:11.103Z,61.91
2023-04-18T12:40:39.884Z,62.06
2023-04-18T12:43:08.276Z,62.51
2023-04-18T12:45:36.465Z,63.01
2023-04-18T12:48:04.809Z,63.14
2023-04-18T12:50:33.004Z,64.25
2023-04-18T12:53:01.595Z,64.50
2023-04-18T12:55:29.712Z,64.82
2023-04-18T12:57:58.312Z,65.83
2023-04-18T13:00:32.860Z,66.66
2023-04-18T13:03:11.762Z,67.07
2023-04-18T13:05:49.173Z,67.44
2023-04-18T13:08:22.652Z,67.87
2023-04-18T13:10:57.371Z,68.44
2023-04-18T13:13:29.420Z,69.01
2023-04-18T13:16:00.114Z,69.00
2023-04-18T13:18:44.554Z,69.18
2023-04-18T13:21:14.839Z,69.62
2023-04-18T13:23:53.659Z,69.56
2023-04-18T13:26:29.152Z,70.00
2023-04-18T13:29:07.904Z,70.70
2023-04-18T13:31:50.100Z,71.24
2023-04-18T13:34:24.657Z,71.65
2023-04-18T13:37:09.985Z,71.81
2023-04-18T13:51:32.264Z,73.44
2023-04-18T13:54:16.752Z,73.46
2023-04-18T13:56:48.733Z,73.19
2023-04-18T13:59:24.683Z,72.67
2023-04-18T14:02:08.200Z,72.52
2023-04-18T14:04:37.120Z,72.28
2023-04-18T14:07:08.734Z,71.83
2023-04-18T14:09:38.948Z,71.94
2023-04-18T14:12:22.473Z,71.79
2023-04-18T14:17:44.034Z,71.59
2023-04-18T14:20:15.748Z,70.54
2023-04-18T14:22:43.838Z,70.13
2023-04-18T14:25:11.836Z,70.25
2023-04-18T14:27:40.433Z,70.13
2023-04-18T14:30:09.268Z,70.11
2023-04-18T14:32:37.604Z,69.86
2023-04-18T14:35:07.327Z,69.87
2023-04-18T14:37:36.395Z,69.79
2023-04-18T14:40:05.948Z,69.51
2023-04-18T14:42:34.271Z,68.99
2023-04-18T14:45:03.005Z,69.10
2023-04-18T14:47:34.742Z,68.92
2023-04-18T14:50:02.941Z,69.17
2023-04-18T14:52:31.369Z,69.84
2023-04-18T14:54:59.384Z,69.85
2023-04-18T14:57:29.662Z,69.52
2023-04-18T14:59:57.639Z,69.30
2023-04-18T15:02:26.642Z,69.59
2023-04-18T15:04:56.822Z,70.01
2023-04-18T15:07:24.967Z,69.80
2023-04-18T15:09:53.256Z,69.73
2023-04-18T15:12:22.272Z,69.65
2023-04-18T15:14:50.337Z,69.73
2023-04-18T15:17:18.478Z,69.81
2023-04-18T15:19:46.485Z,69.85
2023-04-18T15:22:14.488Z,69.66
2023-04-18T15:24:42.549Z,69.45
2023-04-18T15:27:10.973Z,69.62
2023-04-18T15:29:39.583Z,69.52
2023-04-18T15:32:09.352Z,69.68
2023-04-18T15:34:37.394Z,69.73
2023-04-18T15:37:05.632Z,69.86
2023-04-18T15:39:33.684Z,69.80
2023-04-18T15:42:02.362Z,69.87
2023-04-18T15:44:50.452Z,69.75
2023-04-18T15:47:18.618Z,69.65
2023-04-18T15:49:47.249Z,69.70
2023-04-18T15:52:16.086Z,70.07
2023-04-18T15:54:44.120Z,70.85
2023-04-18T15:57:12.228Z,70.44
2023-04-18T15:59:40.352Z,69.90
2023-04-18T16:02:09.020Z,69.85
2023-04-18T16:04:38.493Z,70.12
2023-04-18T16:07:07.352Z,70.18
2023-04-18T16:09:35.880Z,69.93
2023-04-18T16:12:04.898Z,70.09
2023-04-18T16:14:33.897Z,70.09
2023-04-18T16:17:02.956Z,70.00
2023-04-18T16:19:32.953Z,70.05
2023-04-18T16:22:07.282Z,69.45
2023-04-18T16:24:35.587Z,69.37
2023-04-18T16:27:03.849Z,69.12
2023-04-18T16:29:31.967Z,68.88
2023-04-18T16:32:03.202Z,68.94
2023-04-18T16:34:31.347Z,68.78
2023-04-18T16:36:59.632Z,68.31
2023-04-18T16:39:29.252Z,68.54
2023-04-18T16:41:57.727Z,68.44
2023-04-18T16:44:26.459Z,69.14
2023-04-18T16:46:55.170Z,69.44
2023-04-18T16:49:23.786Z,69.82
2023-04-18T16:51:52.131Z,70.32
2023-04-18T16:54:20.637Z,70.80
2023-04-18T16:56:48.737Z,70.85
2023-04-18T16:59:18.098Z,71.07
2023-04-18T17:01:46.731Z,71.44
2023-04-18T17:04:15.848Z,71.44
2023-04-18T17:06:44.787Z,71.94
2023-04-18T17:09:16.413Z,72.05
2023-04-18T17:11:45.154Z,72.19
2023-04-18T17:14:13.719Z,72.47
2023-04-18T17:16:42.631Z,71.94
2023-04-18T17:19:11.672Z,71.60
2023-04-18T17:21:39.997Z,71.95
2023-04-18T17:24:09.366Z,71.87
2023-04-18T17:26:38.543Z,72.17
2023-04-18T17:29:06.520Z,72.54
2023-04-18T17:31:34.727Z,72.71
2023-04-18T17:34:03.821Z,72.71
2023-04-18T17:36:32.861Z,72.65
2023-04-18T17:39:06.809Z,72.28
2023-04-18T17:41:39.479Z,71.98
2023-04-18T17:44:08.372Z,72.35
2023-04-18T17:46:37.002Z,73.19
2023-04-18T17:49:08.630Z,73.28
2023-04-18T17:51:36.898Z,73.15
2023-04-18T17:54:05.575Z,72.56
2023-04-18T17:56:33.946Z,72.76
2023-04-18T17:59:02.635Z,72.84
2023-04-18T18:01:30.806Z,73.10
2023-04-18T18:03:58.965Z,72.65
2023-04-18T18:06:30.548Z,73.49
2023-04-18T18:08:58.739Z,73.87
2023-04-18T18:11:27.807Z,74.47
2023-04-18T18:13:57.646Z,74.50
2023-04-18T18:16:26.034Z,74.09
2023-04-18T18:18:54.791Z,74.35
2023-04-18T18:21:23.218Z,74.46
2023-04-18T18:23:51.449Z,74.68
2023-04-18T18:26:19.719Z,74.17
2023-04-18T18:28:47.871Z,73.85
2023-04-18T18:31:16.917Z,73.51
2023-04-18T18:33:45.119Z,73.22
2023-04-18T18:36:13.241Z,72.83
2023-04-18T18:38:41.702Z,73.21
2023-04-18T18:41:10.057Z,73.18
2023-04-18T18:43:38.075Z,72.75
2023-04-18T18:46:06.183Z,73.01
2023-04-18T18:48:38.198Z,73.03
2023-04-18T18:51:06.312Z,73.19
2023-04-18T18:53:34.922Z,73.51
2023-04-18T18:56:05.429Z,73.32
2023-04-18T18:58:34.867Z,72.56
2023-04-18T19:01:03.644Z,72.68
2023-04-18T19:03:32.758Z,72.73
2023-04-18T19:06:03.955Z,72.94
2023-04-18T19:08:32.217Z,72.30
2023-04-18T19:11:00.357Z,71.24
2023-04-18T19:13:28.873Z,71.15
2023-04-18T19:15:57.233Z,70.94
2023-04-18T19:18:25.995Z,70.73
2023-04-18T19:20:55.089Z,70.34
2023-04-18T19:23:25.276Z,69.96
2023-04-18T19:25:53.468Z,70.06
2023-04-18T19:28:23.250Z,70.15
2023-04-18T19:30:53.119Z,70.33
2023-04-18T19:33:24.302Z,70.46
2023-04-18T19:35:52.310Z,70.81
2023-04-18T19:38:20.771Z,70.53
2023-04-18T19:40:48.858Z,70.19
2023-04-18T19:43:17.085Z,69.96
2023-04-18T19:45:45.594Z,70.05
2023-04-18T19:48:13.750Z,70.23
2023-04-18T19:50:42.422Z,70.01
2023-04-18T19:53:11.053Z,69.96
2023-04-18T19:55:39.280Z,70.14
2023-04-18T19:58:07.646Z,70.61
2023-04-18T20:00:35.961Z,70.75
2023-04-18T20:03:04.634Z,70.86
2023-04-18T20:05:33.250Z,70.85
2023-04-18T20:08:01.311Z,70.55
2023-04-18T20:10:29.970Z,70.63
2023-04-18T20:12:58.261Z,70.53
2023-04-18T20:15:26.167Z,70.40
2023-04-18T20:17:54.138Z,70.39
2023-04-18T20:20:23.537Z,70.17
2023-04-18T20:22:51.584Z,70.76
2023-04-18T20:25:19.709Z,71.29
2023-04-18T20:27:48.319Z,71.40
2023-04-18T20:30:16.285Z,71.46
2023-04-18T20:32:44.575Z,71.35
2023-04-18T20:35:12.899Z,71.19
2023-04-18T20:37:41.477Z,71.24
2023-04-18T20:40:10.072Z,70.86
2023-04-18T20:42:39.028Z,70.38
2023-04-18T20:45:11.309Z,70.17
2023-04-18T20:47:41.492Z,69.91
2023-04-18T20:50:10.151Z,70.07
2023-04-18T20:52:38.623Z,70.17
2023-04-18T20:55:06.728Z,70.42
2023-04-18T20:57:35.968Z,70.01
2023-04-18T21:00:06.742Z,69.85
2023-04-18T21:02:36.220Z,70.16
2023-04-18T21:05:04.709Z,70.08
2023-04-18T21:07:32.879Z,70.25
2023-04-18T21:10:00.888Z,69.81
2023-04-18T21:12:29.379Z,69.94
2023-04-18T21:14:57.449Z,70.28
2023-04-18T21:17:25.917Z,70.19
2023-04-18T21:19:54.966Z,69.94
2023-04-18T21:22:22.943Z,70.11
2023-04-18T21:24:50.824Z,69.92
2023-04-18T21:27:18.895Z,69.66
2023-04-18T21:29:46.815Z,69.37
2023-04-18T21:32:14.750Z,69.56
2023-04-18T21:34:42.754Z,69.85
2023-04-18T21:37:10.677Z,70.59
2023-04-18T21:39:39.487Z,69.99
2023-04-18T21:42:07.565Z,69.68
2023-04-18T21:44:36.222Z,69.63
2023-04-18T21:47:04.233Z,69.69
2023-04-18T21:49:32.253Z,69.76
2023-04-18T21:52:00.580Z,69.94
2023-04-18T21:54:28.547Z,69.32
2023-04-18T21:56:57.009Z,69.10
2023-04-18T21:59:25.099Z,69.47
2023-04-18T22:01:53.090Z,69.59
2023-04-18T22:04:26.118Z,69.86
2023-04-18T22:06:54.732Z,69.89
2023-04-18T22:09:23.521Z,70.69
2023-04-18T22:11:51.962Z,70.65
2023-04-18T22:14:20.088Z,71.74
2023-04-18T22:16:50.220Z,72.20
2023-04-18T22:19:19.505Z,72.63
2023-04-18T22:21:47.583Z,72.98
2023-04-18T22:24:15.822Z,73.36
2023-04-18T22:26:44.152Z,73.78
2023-04-18T22:29:12.173Z,74.36
2023-04-18T22:31:40.280Z,74.36
2023-04-18T22:34:08.256Z,74.40
2023-04-18T22:36:36.443Z,73.98
2023-04-18T22:39:06.282Z,74.41
2023-04-18T22:41:36.917Z,73.14
2023-04-18T22:44:04.976Z,71.06
2023-04-18T22:46:33.349Z,69.49
2023-04-18T22:49:01.347Z,68.10
2023-04-18T22:51:29.556Z,67.73
2023-04-18T22:53:57.525Z,67.44
2023-04-18T22:56:26.116Z,66.57
2023-04-18T22:58:54.260Z,66.30
2023-04-18T23:01:22.447Z,66.20
2023-04-18T23:03:50.706Z,65.87
2023-04-18T23:06:18.842Z,65.93
2023-04-18T23:08:47.216Z,66.03
2023-04-18T23:11:15.911Z,66.04
2023-04-18T23:13:44.428Z,66.47
2023-04-18T23:16:12.482Z,67.29
2023-04-18T23:18:40.473Z,67.78
2023-04-18T23:21:08.447Z,67.89
2023-04-18T23:23:36.428Z,67.34
2023-04-18T23:26:25.476Z,67.63
2023-04-18T23:28:53.647Z,68.69
2023-04-18T23:31:21.843Z,68.79
2023-04-18T23:33:49.998Z,68.45
2023-04-18T23:36:18.007Z,68.81
2023-04-18T23:38:46.913Z,68.79
2023-04-18T23:41:15.933Z,68.99
2023-04-18T23:43:44.742Z,68.37
2023-04-18T23:46:13.313Z,67.73
2023-04-18T23:48:41.674Z,66.56
2023-04-18T23:51:10.001Z,65.74
2023-04-18T23:53:39.985Z,65.47
2023-04-18T23:56:08.441Z,65.39
2023-04-18T23:58:36.848Z,64.93
